Pineglen — VOGX — position and weather

sailwx.info

Track history (hours):
 
Tides and Currents Weather Stations Pressure Air Temp Water Temp Dewpoint Dewpoint Depression Visibility Wind Speed Wind Dir Waves Ship Positions

Pineglen

Last reported at 2016-Dec-03 06:33 UTC. Time now 2016-Dec-03 19:48 UTC.
Position N 45°14' W 074°11'.

Length 225 m; draft 6.5 m.

Type: Cargo ship. MMSI: 316001839.

Date/timePositionNaut miles runAvg speedWind from/ knotsBaromVisibWave heightAir tempDewpointWater temp
2016-Dec-03 06:33N 45°14' W 074°11'8 8.1
2016-Dec-03 05:32N 45°15' W 073°59'4 4.4
2016-Dec-03 04:32N 45°18' W 073°56'1 0.7
2016-Dec-03 03:32N 45°19' W 073°55'1 0.8
2016-Dec-03 02:33N 45°20' W 073°55'8 8.2
2016-Dec-03 01:33N 45°24' W 073°45'7 7.3
2016-Dec-03 00:33N 45°24' W 073°35'2 2.4
2016-Dec-02 23:33N 45°25' W 073°31'  
2016-Nov-30 04:09N 45°30' W 073°31'2 2.8
2016-Nov-30 03:32N 45°28' W 073°30'5 2.7
2016-Nov-30 01:31N 45°24' W 073°36'4 4.4
2016-Nov-30 00:33N 45°25' W 073°42'5 4.7
2016-Nov-29 23:33N 45°23' W 073°48'6 6.4
2016-Nov-29 22:33N 45°19' W 073°55'1 0.8
2016-Nov-29 21:33N 45°18' W 073°56'5 4.5
2016-Nov-29 20:32N 45°14' W 073°59'118 7.4
2016-Nov-29 04:31N 44°11' W 076°19'4 4.5
2016-Nov-29 03:34N 44°07' W 076°22'1410.2
2016-Nov-29 02:11N 43°55' W 076°30'123 9.6
2016-Nov-28 13:22N 43°16' W 079°11'3 4.2
2016-Nov-28 12:33N 43°13' W 079°13'2 1.5
2016-Nov-28 11:30N 43°12' W 079°12'  
Track history (hours):
 
Tides and Currents Weather Stations Pressure Air Temp Water Temp Dewpoint Dewpoint Depression Visibility Wind Speed Wind Dir Waves Ship Positions

Pineglen

Last reported at 2016-Dec-03 06:33 UTC. Time now 2016-Dec-03 19:48 UTC.
Position N 45°14' W 074°11'.

Length 225 m; draft 6.5 m.

Type: Cargo ship. MMSI: 316001839.

Date/timePositionNaut miles runAvg speedWind from/ knotsBaromVisibWave heightAir tempDewpointWater temp
2016-Dec-03 06:33N 45°14' W 074°11'8 8.1
2016-Dec-03 05:32N 45°15' W 073°59'4 4.4
2016-Dec-03 04:32N 45°18' W 073°56'1 0.7
2016-Dec-03 03:32N 45°19' W 073°55'1 0.8
2016-Dec-03 02:33N 45°20' W 073°55'8 8.2
2016-Dec-03 01:33N 45°24' W 073°45'7 7.3
2016-Dec-03 00:33N 45°24' W 073°35'2 2.4
2016-Dec-02 23:33N 45°25' W 073°31'  
2016-Nov-30 04:09N 45°30' W 073°31'2 2.8
2016-Nov-30 03:32N 45°28' W 073°30'5 2.7
2016-Nov-30 01:31N 45°24' W 073°36'4 4.4
2016-Nov-30 00:33N 45°25' W 073°42'5 4.7
2016-Nov-29 23:33N 45°23' W 073°48'6 6.4
2016-Nov-29 22:33N 45°19' W 073°55'1 0.8
2016-Nov-29 21:33N 45°18' W 073°56'5 4.5
2016-Nov-29 20:32N 45°14' W 073°59'118 7.4
2016-Nov-29 04:31N 44°11' W 076°19'4 4.5
2016-Nov-29 03:34N 44°07' W 076°22'1410.2
2016-Nov-29 02:11N 43°55' W 076°30'123 9.6
2016-Nov-28 13:22N 43°16' W 079°11'3 4.2
2016-Nov-28 12:33N 43°13' W 079°13'2 1.5
2016-Nov-28 11:30N 43°12' W 079°12'  

Dump ship's entire track history